Time;durP1;ratioP1;P1;durP2;ratioP2;P2;SDS_P1;SDS_P2;PMS_P1;PMS_P2;Temp;Humidity;BMP_temperature;BMP_pressure;BME280_temperature;BME280_humidity;BME280_pressure;Samples;Min_cycle;Max_cycle;Signal;HPM_P1;HPM_P2
2021/03/08 00:01:30;;;;;;;16.50;9.48;;;;;;;;;;5137123;27;20247;-64
2021/03/08 00:03:57;;;;;;;24.65;10.88;;;;;;;;;;5136729;27;20201;-64
2021/03/08 00:06:24;;;;;;;16.23;10.48;;;;;;;;;;5138254;27;20615;-64
2021/03/08 00:08:52;;;;;;;11.50;10.25;;;;;;;;;;5137900;27;20739;-65
2021/03/08 00:11:21;;;;;;;13.32;10.20;;;;;;;;;;5137080;27;20190;-65
2021/03/08 00:13:48;;;;;;;15.20;9.30;;;;;;;;;;5136702;27;20682;-66
2021/03/08 00:16:15;;;;;;;9.18;7.90;;;;;;;;;;5136877;27;20190;-65
2021/03/08 00:18:43;;;;;;;12.73;8.95;;;;;;;;;;5136765;27;20217;-64
2021/03/08 00:21:10;;;;;;;12.10;9.00;;;;;;;;;;5136698;27;20653;-65
2021/03/08 00:23:37;;;;;;;11.88;8.70;;;;;;;;;;5136019;27;20541;-64
2021/03/08 00:26:03;;;;;;;11.98;8.20;;;;;;;;;;5118112;27;20681;-64
2021/03/08 00:28:30;;;;;;;10.02;8.35;;;;;;;;;;5136672;27;20201;-64
2021/03/08 00:30:56;;;;;;;12.55;7.93;;;;;;;;;;5136912;27;20200;-64
2021/03/08 00:33:28;;;;;;;11.55;8.90;;;;;;;;;;5136038;27;20179;-65
2021/03/08 00:35:54;;;;;;;13.57;7.85;;;;;;;;;;5136476;27;20649;-64
2021/03/08 00:38:25;;;;;;;10.15;8.98;;;;;;;;;;5136272;27;20209;-64
2021/03/08 00:40:53;;;;;;;9.43;8.15;;;;;;;;;;5136455;27;20676;-65
2021/03/08 00:43:20;;;;;;;16.27;9.50;;;;;;;;;;5136116;27;20194;-64
2021/03/08 00:45:47;;;;;;;13.48;8.18;;;;;;;;;;5136263;27;20228;-64
2021/03/08 00:48:13;;;;;;;11.43;7.65;;;;;;;;;;5136077;27;20565;-65
2021/03/08 00:50:40;;;;;;;11.27;7.85;;;;;;;;;;5136026;27;20198;-65
2021/03/08 00:53:07;;;;;;;8.98;8.02;;;;;;;;;;5136321;27;20167;-64
2021/03/08 00:55:33;;;;;;;11.10;8.63;;;;;;;;;;5135337;27;20206;-65
2021/03/08 00:58:00;;;;;;;11.68;6.82;;;;;;;;;;5136781;27;20209;-65
2021/03/08 01:00:27;;;;;;;10.38;8.38;;;;;;;;;;5135849;27;20206;-65
2021/03/08 01:02:56;;;;;;;9.05;7.93;;;;;;;;;;5135860;27;20202;-65
2021/03/08 01:05:24;;;;;;;10.38;8.45;;;;;;;;;;5135607;27;20241;-65
2021/03/08 01:07:51;;;;;;;8.35;7.28;;;;;;;;;;5135519;27;20206;-65
2021/03/08 01:10:22;;;;;;;11.43;8.65;;;;;;;;;;5135714;27;20707;-65
2021/03/08 01:12:51;;;;;;;9.73;7.10;;;;;;;;;;5135806;27;20201;-65
2021/03/08 01:15:17;;;;;;;8.75;7.55;;;;;;;;;;5117145;27;20228;-65
2021/03/08 01:17:46;;;;;;;11.30;7.55;;;;;;;;;;5135436;27;20219;-65
2021/03/08 01:20:14;;;;;;;9.70;7.70;;;;;;;;;;5134957;27;20206;-64
2021/03/08 01:22:44;;;;;;;8.85;7.95;;;;;;;;;;5136158;27;20182;-64
2021/03/08 01:25:31;;;;;;;10.63;7.50;;;;;;;;;;5135110;27;20221;-64
2021/03/08 01:27:58;;;;;;;10.73;9.45;;;;;;;;;;5135278;27;20178;-64
2021/03/08 01:30:27;;;;;;;9.43;7.75;;;;;;;;;;5135149;27;20200;-64
2021/03/08 01:32:53;;;;;;;12.75;7.95;;;;;;;;;;5134874;27;20198;-64
2021/03/08 01:35:23;;;;;;;9.60;8.60;;;;;;;;;;5135374;27;20285;-64
2021/03/08 01:37:50;;;;;;;14.10;8.65;;;;;;;;;;5135003;27;20572;-64
2021/03/08 01:40:17;;;;;;;12.80;8.43;;;;;;;;;;5134500;27;20202;-64
2021/03/08 01:42:46;;;;;;;9.15;7.50;;;;;;;;;;5135239;27;20202;-64
2021/03/08 01:45:14;;;;;;;11.25;7.75;;;;;;;;;;5115426;27;20222;-64
2021/03/08 01:47:42;;;;;;;11.88;9.00;;;;;;;;;;5134866;27;20213;-64
2021/03/08 01:50:15;;;;;;;14.32;7.50;;;;;;;;;;5135225;27;20178;-64
2021/03/08 01:52:42;;;;;;;8.38;7.40;;;;;;;;;;5134614;27;20230;-64
2021/03/08 01:55:11;;;;;;;10.02;8.18;;;;;;;;;;5135146;27;20198;-64
2021/03/08 01:57:40;;;;;;;15.35;9.05;;;;;;;;;;5134324;27;20625;-64
2021/03/08 02:00:10;;;;;;;14.27;8.80;;;;;;;;;;5135449;27;20285;-66
2021/03/08 02:02:41;;;;;;;13.35;8.98;;;;;;;;;;5134740;27;20235;-66
2021/03/08 02:05:09;;;;;;;13.10;8.75;;;;;;;;;;5134881;27;20218;-66
2021/03/08 02:07:36;;;;;;;11.93;8.10;;;;;;;;;;5134276;27;20656;-66
2021/03/08 02:10:05;;;;;;;13.35;9.90;;;;;;;;;;5134950;27;20198;-66
2021/03/08 02:12:44;;;;;;;12.30;10.00;;;;;;;;;;5134860;27;20561;-66
2021/03/08 02:15:30;;;;;;;15.50;9.60;;;;;;;;;;5115850;28;20209;-65
2021/03/08 02:18:11;;;;;;;11.98;8.27;;;;;;;;;;5134429;28;20198;-66
2021/03/08 02:20:47;;;;;;;12.88;8.25;;;;;;;;;;5134600;28;20178;-66
2021/03/08 02:23:20;;;;;;;11.23;9.10;;;;;;;;;;5133743;28;20209;-66
2021/03/08 02:25:57;;;;;;;10.20;8.93;;;;;;;;;;5134295;28;20218;-66
2021/03/08 02:28:38;;;;;;;11.90;8.40;;;;;;;;;;5135008;28;20176;-66
2021/03/08 02:31:08;;;;;;;12.95;7.78;;;;;;;;;;5134845;28;20174;-66
2021/03/08 02:33:35;;;;;;;13.73;9.15;;;;;;;;;;5134268;28;20190;-66
2021/03/08 02:36:06;;;;;;;14.52;8.27;;;;;;;;;;5134390;28;20193;-66
2021/03/08 02:38:43;;;;;;;24.95;9.90;;;;;;;;;;5134421;28;20170;-66
2021/03/08 02:41:13;;;;;;;10.80;8.43;;;;;;;;;;5134747;28;20196;-66
2021/03/08 02:43:44;;;;;;;11.68;9.35;;;;;;;;;;5134751;28;20185;-66
2021/03/08 02:46:12;;;;;;;9.23;8.30;;;;;;;;;;5134518;28;20217;-66
2021/03/08 02:48:41;;;;;;;10.45;8.50;;;;;;;;;;5134220;28;20724;-66
2021/03/08 02:51:11;;;;;;;10.13;8.43;;;;;;;;;;5134395;28;20312;-66
2021/03/08 02:53:41;;;;;;;13.02;9.77;;;;;;;;;;5134261;28;20273;-66
2021/03/08 02:56:11;;;;;;;12.80;8.48;;;;;;;;;;5134581;27;20202;-66
2021/03/08 02:58:39;;;;;;;10.27;8.32;;;;;;;;;;5138272;27;20230;-66
2021/03/08 03:01:06;;;;;;;13.50;9.40;;;;;;;;;;5137926;27;20201;-66
2021/03/08 03:03:38;;;;;;;15.90;8.60;;;;;;;;;;5138158;27;20661;-66
2021/03/08 03:06:07;;;;;;;12.13;9.27;;;;;;;;;;5138019;27;20288;-66
2021/03/08 03:08:34;;;;;;;11.30;8.23;;;;;;;;;;5138133;27;20198;-66
2021/03/08 03:11:03;;;;;;;14.05;7.85;;;;;;;;;;5138036;27;20218;-66
2021/03/08 03:13:31;;;;;;;13.70;8.50;;;;;;;;;;5138183;27;20230;-66
2021/03/08 03:15:59;;;;;;;10.20;7.78;;;;;;;;;;5137682;27;20201;-66
2021/03/08 03:18:27;;;;;;;11.65;8.32;;;;;;;;;;5137734;27;20205;-66
2021/03/08 03:20:54;;;;;;;16.77;7.97;;;;;;;;;;5137700;27;20202;-66
2021/03/08 03:23:21;;;;;;;10.65;7.75;;;;;;;;;;5118507;27;20202;-66
2021/03/08 03:25:48;;;;;;;8.90;8.00;;;;;;;;;;5137721;27;20214;-66
2021/03/08 03:28:16;;;;;;;13.13;7.85;;;;;;;;;;5137695;27;20182;-66
2021/03/08 03:30:43;;;;;;;13.13;8.60;;;;;;;;;;5118881;27;20564;-66
2021/03/08 03:33:10;;;;;;;18.58;8.77;;;;;;;;;;5137621;27;20200;-66
2021/03/08 03:35:37;;;;;;;7.88;7.05;;;;;;;;;;5137703;27;20654;-66
2021/03/08 03:38:04;;;;;;;9.38;8.27;;;;;;;;;;5137117;27;20224;-66
2021/03/08 03:40:32;;;;;;;12.15;8.82;;;;;;;;;;5137448;27;20209;-66
2021/03/08 03:43:00;;;;;;;11.68;9.25;;;;;;;;;;5137427;27;20552;-66
2021/03/08 03:45:26;;;;;;;18.73;9.82;;;;;;;;;;5137222;27;20218;-66
2021/03/08 03:54:40;;;;;;;13.20;8.98;;;;;;;;;;4327566;27;20215;-66
2021/03/08 03:57:12;;;;;;;15.85;9.32;;;;;;;;;;5136954;27;20209;-66
2021/03/08 03:59:47;;;;;;;12.40;9.60;;;;;;;;;;5137012;27;20190;-66
2021/03/08 04:02:29;;;;;;;12.25;8.95;;;;;;;;;;5136708;27;20206;-66
2021/03/08 04:05:01;;;;;;;15.85;9.95;;;;;;;;;;5118575;27;20286;-66
2021/03/08 04:07:28;;;;;;;11.10;8.90;;;;;;;;;;5136255;27;20202;-66
2021/03/08 04:09:56;;;;;;;12.25;8.88;;;;;;;;;;5136686;27;20546;-66
2021/03/08 04:12:33;;;;;;;14.77;10.40;;;;;;;;;;5118019;27;20225;-66
2021/03/08 04:15:05;;;;;;;14.68;9.30;;;;;;;;;;5137227;27;20177;-66
2021/03/08 04:17:40;;;;;;;11.45;9.07;;;;;;;;;;5136784;27;20171;-66
2021/03/08 04:20:13;;;;;;;16.08;10.27;;;;;;;;;;5118451;27;20263;-66
2021/03/08 04:22:39;;;;;;;13.38;8.80;;;;;;;;;;5117176;27;20202;-66
2021/03/08 04:25:08;;;;;;;15.95;9.00;;;;;;;;;;5136454;27;20190;-66
2021/03/08 04:27:34;;;;;;;11.90;9.13;;;;;;;;;;5136565;27;20191;-66
2021/03/08 04:30:03;;;;;;;14.98;9.52;;;;;;;;;;5136551;27;20190;-66
2021/03/08 04:32:30;;;;;;;11.27;9.38;;;;;;;;;;5136378;27;20555;-66
2021/03/08 04:35:00;;;;;;;11.95;8.75;;;;;;;;;;5136268;27;20641;-66
2021/03/08 04:37:27;;;;;;;14.52;9.50;;;;;;;;;;5136292;27;20197;-66
2021/03/08 04:39:54;;;;;;;12.82;9.52;;;;;;;;;;5117554;27;20213;-66
2021/03/08 04:42:24;;;;;;;11.68;8.55;;;;;;;;;;5136509;27;20300;-67
2021/03/08 04:44:51;;;;;;;15.07;10.55;;;;;;;;;;5136043;27;20268;-65
2021/03/08 04:47:21;;;;;;;14.55;9.73;;;;;;;;;;5136031;27;20209;-65
2021/03/08 04:49:51;;;;;;;15.05;8.82;;;;;;;;;;5118220;27;20178;-65
2021/03/08 04:52:19;;;;;;;13.50;10.20;;;;;;;;;;5136470;27;20203;-65
2021/03/08 04:54:46;;;;;;;13.30;10.35;;;;;;;;;;5135899;27;20225;-65
2021/03/08 04:57:15;;;;;;;13.57;9.90;;;;;;;;;;5136160;27;20206;-65
2021/03/08 04:59:42;;;;;;;12.88;9.65;;;;;;;;;;5135954;27;20192;-65
2021/03/08 05:02:10;;;;;;;13.75;9.88;;;;;;;;;;5136109;27;20645;-65
2021/03/08 05:04:40;;;;;;;13.80;10.25;;;;;;;;;;5135737;27;20248;-65
2021/03/08 05:07:08;;;;;;;16.08;10.80;;;;;;;;;;5135878;27;20210;-65
2021/03/08 05:09:35;;;;;;;15.60;10.35;;;;;;;;;;5116769;27;20645;-65
2021/03/08 05:12:06;;;;;;;10.80;9.23;;;;;;;;;;5135547;27;20186;-65
2021/03/08 05:14:34;;;;;;;13.00;9.43;;;;;;;;;;5135992;27;20178;-65
2021/03/08 05:17:03;;;;;;;13.55;10.15;;;;;;;;;;5135721;27;20197;-65
2021/03/08 05:19:34;;;;;;;16.60;9.98;;;;;;;;;;5135512;27;20166;-65
2021/03/08 05:22:00;;;;;;;17.52;10.95;;;;;;;;;;5135414;27;20190;-65
2021/03/08 05:24:28;;;;;;;19.92;10.43;;;;;;;;;;5135289;27;20186;-65
2021/03/08 05:26:57;;;;;;;20.05;10.00;;;;;;;;;;5117314;27;20210;-65
2021/03/08 05:29:24;;;;;;;12.38;10.00;;;;;;;;;;5135416;27;20194;-65
2021/03/08 05:31:52;;;;;;;13.63;10.80;;;;;;;;;;5135250;27;20190;-65
2021/03/08 05:34:28;;;;;;;14.98;11.45;;;;;;;;;;5136065;27;20173;-65
2021/03/08 05:36:55;;;;;;;15.15;10.63;;;;;;;;;;5135158;27;20197;-65
2021/03/08 05:39:22;;;;;;;14.77;11.00;;;;;;;;;;5135270;27;20185;-65
2021/03/08 05:42:00;;;;;;;13.35;9.95;;;;;;;;;;5135115;27;20206;-65
2021/03/08 05:44:29;;;;;;;25.17;11.63;;;;;;;;;;5134905;27;20177;-66
2021/03/08 05:47:18;;;;;;;15.85;10.90;;;;;;;;;;5135034;27;20206;-65
2021/03/08 05:50:03;;;;;;;18.83;11.30;;;;;;;;;;5134836;27;20181;-65
2021/03/08 05:52:34;;;;;;;14.70;9.98;;;;;;;;;;5134887;27;20242;-65
2021/03/08 05:55:01;;;;;;;13.65;11.00;;;;;;;;;;5134845;27;20221;-65
2021/03/08 05:57:31;;;;;;;21.17;12.13;;;;;;;;;;5134796;27;20174;-65
2021/03/08 06:00:04;;;;;;;18.30;11.38;;;;;;;;;;5134817;27;20190;-65
2021/03/08 06:02:36;;;;;;;15.98;11.38;;;;;;;;;;5116432;27;20648;-65
2021/03/08 06:05:23;;;;;;;15.82;11.00;;;;;;;;;;5134419;27;20196;-65
2021/03/08 06:08:08;;;;;;;14.57;11.43;;;;;;;;;;5103534;27;20205;-65
2021/03/08 06:10:36;;;;;;;14.50;11.60;;;;;;;;;;5115730;27;20213;-65
2021/03/08 06:13:08;;;;;;;12.52;9.73;;;;;;;;;;5134611;27;20641;-65
2021/03/08 06:15:36;;;;;;;25.67;12.02;;;;;;;;;;5116403;27;20215;-65
2021/03/08 06:18:06;;;;;;;14.48;10.23;;;;;;;;;;5134681;27;20196;-65
2021/03/08 06:20:37;;;;;;;18.85;11.90;;;;;;;;;;5116797;28;20224;-65
2021/03/08 06:23:04;;;;;;;23.27;11.10;;;;;;;;;;5134428;28;20186;-65
2021/03/08 06:25:31;;;;;;;17.08;11.13;;;;;;;;;;5134376;28;20187;-65
2021/03/08 06:28:00;;;;;;;15.88;11.18;;;;;;;;;;5134411;28;20186;-65
2021/03/08 06:30:27;;;;;;;15.38;11.38;;;;;;;;;;5134286;27;20181;-65
2021/03/08 06:32:55;;;;;;;22.50;11.77;;;;;;;;;;5138647;27;20198;-65
2021/03/08 06:35:21;;;;;;;13.60;10.73;;;;;;;;;;5138886;27;20186;-65
2021/03/08 06:37:51;;;;;;;17.48;12.27;;;;;;;;;;5138523;27;20201;-65
2021/03/08 06:40:18;;;;;;;20.65;17.60;;;;;;;;;;5138044;27;20210;-65
2021/03/08 06:42:46;;;;;;;20.40;12.80;;;;;;;;;;5137909;27;20247;-65
2021/03/08 06:45:13;;;;;;;22.08;11.07;;;;;;;;;;5138634;27;20610;-66
2021/03/08 06:47:40;;;;;;;18.60;12.18;;;;;;;;;;5138171;27;20218;-66
2021/03/08 06:50:07;;;;;;;14.48;11.27;;;;;;;;;;5138437;27;20194;-66
2021/03/08 06:52:41;;;;;;;22.88;13.88;;;;;;;;;;5138321;27;20215;-67
2021/03/08 06:55:08;;;;;;;20.50;12.93;;;;;;;;;;5116459;28;20234;-66
2021/03/08 06:57:35;;;;;;;16.90;11.93;;;;;;;;;;5117757;27;20226;-66
2021/03/08 07:00:13;;;;;;;16.65;11.75;;;;;;;;;;5117626;28;20186;-66
2021/03/08 07:02:47;;;;;;;16.05;12.38;;;;;;;;;;5117702;28;20198;-65
2021/03/08 07:05:15;;;;;;;16.85;11.30;;;;;;;;;;5118175;28;20199;-65
2021/03/08 07:07:59;;;;;;;15.00;10.38;;;;;;;;;;5117932;28;20689;-65
2021/03/08 07:10:38;;;;;;;14.70;10.38;;;;;;;;;;5118308;28;20214;-66
2021/03/08 07:13:06;;;;;;;14.77;11.95;;;;;;;;;;5117811;28;20182;-65
2021/03/08 07:15:32;;;;;;;16.10;12.02;;;;;;;;;;5117628;28;20670;-65
2021/03/08 07:18:08;;;;;;;15.60;11.25;;;;;;;;;;5117242;28;20730;-64
2021/03/08 07:20:35;;;;;;;17.73;11.90;;;;;;;;;;5117846;27;20201;-64
2021/03/08 07:23:01;;;;;;;17.92;12.20;;;;;;;;;;5116407;28;20217;-65
2021/03/08 07:25:30;;;;;;;15.35;11.50;;;;;;;;;;5117378;28;20191;-65
2021/03/08 07:28:00;;;;;;;18.25;12.45;;;;;;;;;;5117204;28;20190;-65
2021/03/08 07:30:37;;;;;;;18.50;12.52;;;;;;;;;;5117198;28;20181;-65
2021/03/08 07:33:10;;;;;;;23.02;12.75;;;;;;;;;;5117212;28;20174;-65
2021/03/08 07:35:45;;;;;;;17.88;13.50;;;;;;;;;;5117419;28;20584;-65
2021/03/08 07:38:32;;;;;;;24.90;14.00;;;;;;;;;;5118167;28;20194;-65
2021/03/08 07:41:09;;;;;;;31.15;14.65;;;;;;;;;;5117066;28;20177;-65
2021/03/08 07:43:39;;;;;;;16.80;13.68;;;;;;;;;;5115844;28;20197;-65
2021/03/08 07:46:06;;;;;;;18.17;13.90;;;;;;;;;;5116850;28;20218;-65
2021/03/08 07:48:33;;;;;;;16.63;12.05;;;;;;;;;;5116622;28;20218;-65
2021/03/08 07:51:06;;;;;;;19.63;14.02;;;;;;;;;;5116928;28;20182;-65
2021/03/08 07:53:36;;;;;;;18.40;12.60;;;;;;;;;;5118788;27;20171;-65
2021/03/08 07:56:05;;;;;;;15.52;11.18;;;;;;;;;;5137489;27;20209;-65
2021/03/08 07:58:32;;;;;;;20.75;11.80;;;;;;;;;;5118429;27;20551;-65
2021/03/08 08:01:02;;;;;;;19.45;13.35;;;;;;;;;;5137077;27;20194;-65
2021/03/08 08:03:29;;;;;;;13.38;10.40;;;;;;;;;;5137972;27;20543;-65
2021/03/08 08:06:00;;;;;;;16.10;10.85;;;;;;;;;;5118200;27;20213;-65
2021/03/08 08:08:30;;;;;;;13.95;11.30;;;;;;;;;;5136410;27;20194;-65
2021/03/08 08:11:00;;;;;;;17.35;11.45;;;;;;;;;;5137098;27;20589;-65
2021/03/08 08:13:45;;;;;;;17.95;12.55;;;;;;;;;;5136764;27;20649;-65
2021/03/08 08:16:14;;;;;;;16.25;11.27;;;;;;;;;;5118962;27;20190;-64
2021/03/08 08:18:43;;;;;;;17.13;11.68;;;;;;;;;;5136919;27;20202;-65
2021/03/08 08:21:18;;;;;;;17.77;11.93;;;;;;;;;;5119560;27;20170;-64
2021/03/08 08:23:46;;;;;;;19.60;13.98;;;;;;;;;;5117886;27;20206;-64
2021/03/08 08:26:17;;;;;;;16.50;10.70;;;;;;;;;;5136835;27;20206;-64
2021/03/08 08:28:45;;;;;;;15.18;11.90;;;;;;;;;;5136999;27;20186;-64
2021/03/08 08:31:13;;;;;;;18.45;11.55;;;;;;;;;;5136715;27;20550;-64
2021/03/08 08:33:40;;;;;;;17.60;12.77;;;;;;;;;;5136553;27;20194;-64
2021/03/08 08:36:28;;;;;;;18.15;13.05;;;;;;;;;;5136442;27;20181;-64
2021/03/08 08:38:54;;;;;;;15.52;12.68;;;;;;;;;;5135717;27;20206;-64
2021/03/08 08:41:23;;;;;;;17.23;12.70;;;;;;;;;;5136399;27;20190;-64
2021/03/08 08:44:14;;;;;;;21.40;12.73;;;;;;;;;;5136340;27;20193;-64
2021/03/08 08:46:47;;;;;;;21.95;12.65;;;;;;;;;;5117677;27;20711;-65
2021/03/08 08:49:15;;;;;;;19.80;11.73;;;;;;;;;;5117499;27;20226;-65
2021/03/08 08:51:44;;;;;;;12.43;10.38;;;;;;;;;;5139928;27;20269;-65
2021/03/08 08:54:11;;;;;;;19.55;11.35;;;;;;;;;;5137595;27;20657;-65
2021/03/08 08:56:48;;;;;;;16.10;10.30;;;;;;;;;;5103147;27;20209;-65
2021/03/08 08:59:22;;;;;;;14.13;11.48;;;;;;;;;;5137423;27;20705;-65
2021/03/08 09:02:28;;;;;;;17.75;11.88;;;;;;;;;;5136280;27;20753;-65
2021/03/08 09:05:00;;;;;;;15.05;10.73;;;;;;;;;;5117619;27;20209;-65
2021/03/08 09:07:30;;;;;;;13.40;10.45;;;;;;;;;;5135048;27;20222;-65
2021/03/08 09:09:57;;;;;;;18.35;10.38;;;;;;;;;;5117427;27;20637;-65
2021/03/08 09:12:31;;;;;;;13.05;10.82;;;;;;;;;;5135690;27;20190;-65
2021/03/08 09:15:22;;;;;;;16.27;11.90;;;;;;;;;;5135823;27;20550;-65
2021/03/08 09:17:51;;;;;;;21.60;11.07;;;;;;;;;;5134630;27;20641;-66
2021/03/08 09:20:18;;;;;;;14.98;10.93;;;;;;;;;;5116644;27;20198;-66
2021/03/08 09:22:50;;;;;;;14.27;11.43;;;;;;;;;;5135511;27;20189;-66
2021/03/08 09:25:19;;;;;;;14.85;9.98;;;;;;;;;;5134798;27;20201;-66
2021/03/08 09:27:58;;;;;;;15.18;12.73;;;;;;;;;;5135157;27;20210;-66
2021/03/08 09:30:34;;;;;;;15.95;12.25;;;;;;;;;;5135786;27;20618;-66
2021/03/08 09:33:05;;;;;;;15.13;12.32;;;;;;;;;;5134867;27;20197;-65
2021/03/08 09:35:36;;;;;;;17.10;12.55;;;;;;;;;;5134662;27;20208;-66
2021/03/08 09:38:06;;;;;;;17.02;12.00;;;;;;;;;;5135649;27;20186;-65
2021/03/08 09:40:37;;;;;;;13.25;11.05;;;;;;;;;;5135571;27;20198;-66
2021/03/08 09:43:16;;;;;;;13.80;10.30;;;;;;;;;;5117036;27;20217;-65
2021/03/08 09:45:47;;;;;;;14.85;7.80;;;;;;;;;;5117712;27;20598;-67
2021/03/08 09:48:14;;;;;;;10.70;7.20;;;;;;;;;;5135588;27;20764;-67
2021/03/08 09:50:41;;;;;;;8.65;7.40;;;;;;;;;;5135445;27;20231;-66
2021/03/08 09:53:09;;;;;;;9.40;7.28;;;;;;;;;;5135252;27;20198;-66
2021/03/08 09:55:36;;;;;;;9.52;8.50;;;;;;;;;;5135243;27;20681;-66
2021/03/08 09:58:09;;;;;;;13.50;8.45;;;;;;;;;;5100037;27;20201;-66
2021/03/08 10:00:37;;;;;;;17.30;9.35;;;;;;;;;;5135314;27;20275;-65
2021/03/08 10:03:08;;;;;;;12.88;9.50;;;;;;;;;;5135461;27;20269;-66
2021/03/08 10:05:42;;;;;;;9.60;8.60;;;;;;;;;;5134782;27;20190;-66
2021/03/08 10:08:09;;;;;;;8.60;7.70;;;;;;;;;;5116475;27;20225;-65
2021/03/08 10:10:40;;;;;;;9.13;7.47;;;;;;;;;;5119536;27;20178;-67
2021/03/08 10:13:09;;;;;;;11.88;7.55;;;;;;;;;;5116296;27;20208;-65
2021/03/08 10:16:02;;;;;;;12.00;8.77;;;;;;;;;;5134119;27;20185;-66
2021/03/08 10:18:32;;;;;;;9.68;7.93;;;;;;;;;;5131267;27;20218;-65
2021/03/08 10:21:01;;;;;;;15.48;9.15;;;;;;;;;;5134061;28;20186;-65
2021/03/08 10:23:34;;;;;;;9.65;7.93;;;;;;;;;;5134079;28;20272;-65
2021/03/08 10:26:05;;;;;;;11.95;7.78;;;;;;;;;;5115315;28;20630;-66
2021/03/08 10:28:39;;;;;;;15.98;7.30;;;;;;;;;;5134050;28;20237;-66
2021/03/08 10:31:30;;;;;;;11.23;8.27;;;;;;;;;;5115355;28;20198;-66
2021/03/08 10:33:58;;;;;;;11.50;8.15;;;;;;;;;;5134316;28;20227;-66
2021/03/08 10:36:28;;;;;;;15.20;9.30;;;;;;;;;;5116284;28;20235;-66
2021/03/08 10:39:03;;;;;;;8.43;7.28;;;;;;;;;;5121545;28;20510;-66
2021/03/08 10:41:31;;;;;;;7.90;6.95;;;;;;;;;;5133534;28;20205;-65
2021/03/08 10:44:00;;;;;;;12.02;9.15;;;;;;;;;;5134226;28;20194;-66
2021/03/08 10:46:35;;;;;;;7.97;6.75;;;;;;;;;;5115570;28;20190;-65
2021/03/08 10:49:05;;;;;;;7.97;6.90;;;;;;;;;;5115672;28;20217;-65
2021/03/08 10:51:33;;;;;;;9.20;7.18;;;;;;;;;;5134365;28;20186;-65
2021/03/08 10:54:01;;;;;;;7.93;7.03;;;;;;;;;;5115449;28;20236;-65
2021/03/08 10:56:30;;;;;;;7.80;6.85;;;;;;;;;;5134300;28;20167;-65
2021/03/08 10:58:57;;;;;;;9.90;7.90;;;;;;;;;;5134568;28;20186;-65
2021/03/08 11:01:27;;;;;;;8.60;6.40;;;;;;;;;;5134165;28;20191;-66
2021/03/08 11:03:56;;;;;;;7.88;7.07;;;;;;;;;;5134662;28;20194;-67
2021/03/08 11:06:26;;;;;;;9.32;6.35;;;;;;;;;;5134122;28;20209;-66
2021/03/08 11:09:00;;;;;;;11.10;6.60;;;;;;;;;;5135230;28;20194;-66
2021/03/08 11:11:32;;;;;;;9.55;5.85;;;;;;;;;;5135029;28;20170;-65
2021/03/08 11:14:06;;;;;;;8.70;6.70;;;;;;;;;;5135366;28;20174;-66
2021/03/08 11:16:33;;;;;;;6.82;6.15;;;;;;;;;;5135081;27;20190;-66
2021/03/08 11:19:18;;;;;;;9.32;5.45;;;;;;;;;;5139115;27;20194;-65
2021/03/08 11:22:04;;;;;;;7.65;5.80;;;;;;;;;;5120429;27;20205;-66
2021/03/08 11:24:31;;;;;;;9.32;6.63;;;;;;;;;;5119219;27;20266;-66
2021/03/08 11:27:11;;;;;;;6.50;5.78;;;;;;;;;;5137583;27;20245;-64
2021/03/08 11:29:40;;;;;;;7.28;6.05;;;;;;;;;;5137580;27;20206;-65
2021/03/08 11:32:10;;;;;;;6.78;6.07;;;;;;;;;;5119493;27;20530;-65
2021/03/08 11:34:44;;;;;;;6.63;5.90;;;;;;;;;;5120353;27;20518;-65
2021/03/08 11:37:21;;;;;;;7.60;5.93;;;;;;;;;;5137968;27;20202;-66
2021/03/08 11:39:50;;;;;;;8.32;6.00;;;;;;;;;;5136930;27;20201;-65
2021/03/08 11:42:24;;;;;;;8.48;6.65;;;;;;;;;;5120002;27;20265;-66
2021/03/08 11:44:53;;;;;;;8.90;7.25;;;;;;;;;;5137596;27;20178;-66
2021/03/08 11:47:21;;;;;;;8.48;6.45;;;;;;;;;;5137224;27;20216;-65
2021/03/08 11:49:48;;;;;;;10.60;7.18;;;;;;;;;;5119475;27;20234;-65
2021/03/08 11:52:15;;;;;;;7.60;6.90;;;;;;;;;;5119168;27;20194;-66
2021/03/08 11:54:43;;;;;;;8.82;7.50;;;;;;;;;;5137442;27;20620;-65
2021/03/08 11:57:12;;;;;;;8.68;6.90;;;;;;;;;;5119403;27;20197;-65
2021/03/08 11:59:39;;;;;;;9.18;7.93;;;;;;;;;;5137279;27;20193;-65
2021/03/08 12:02:05;;;;;;;7.97;7.18;;;;;;;;;;5137197;27;20557;-65
2021/03/08 12:04:32;;;;;;;12.60;8.30;;;;;;;;;;5137027;27;20273;-66
2021/03/08 12:07:00;;;;;;;10.57;8.40;;;;;;;;;;5136896;27;20206;-65
2021/03/08 12:09:33;;;;;;;8.68;7.78;;;;;;;;;;5119231;27;20186;-65
2021/03/08 12:12:00;;;;;;;8.77;6.65;;;;;;;;;;5136957;27;20175;-65
2021/03/08 12:14:28;;;;;;;7.20;6.17;;;;;;;;;;5118755;27;20588;-65
2021/03/08 12:16:54;;;;;;;9.35;8.32;;;;;;;;;;5118228;27;21145;-65
2021/03/08 12:19:25;;;;;;;11.73;7.60;;;;;;;;;;5102482;27;20582;-65
2021/03/08 12:21:52;;;;;;;24.08;7.43;;;;;;;;;;5136311;27;20668;-66
2021/03/08 12:24:18;;;;;;;10.33;7.53;;;;;;;;;;5136186;27;20551;-66
2021/03/08 12:26:45;;;;;;;11.75;7.18;;;;;;;;;;5117989;27;20598;-65
2021/03/08 12:29:16;;;;;;;8.00;6.87;;;;;;;;;;5135660;27;20194;-65
2021/03/08 12:31:42;;;;;;;7.03;6.37;;;;;;;;;;5118332;27;20680;-65
2021/03/08 12:34:09;;;;;;;7.53;6.78;;;;;;;;;;5118415;27;20600;-65
2021/03/08 12:36:38;;;;;;;6.87;6.27;;;;;;;;;;5136153;27;20174;-66
2021/03/08 12:39:04;;;;;;;16.98;6.55;;;;;;;;;;5135840;27;20715;-65
2021/03/08 12:41:33;;;;;;;9.40;8.15;;;;;;;;;;5136474;27;20208;-66
2021/03/08 12:44:01;;;;;;;7.30;6.25;;;;;;;;;;5135975;27;20190;-66
2021/03/08 12:46:28;;;;;;;11.83;7.37;;;;;;;;;;5136299;27;20212;-66
2021/03/08 12:48:56;;;;;;;12.67;7.13;;;;;;;;;;5135930;27;20607;-66
2021/03/08 12:51:23;;;;;;;12.40;8.23;;;;;;;;;;5136420;27;20583;-66
2021/03/08 12:53:51;;;;;;;7.07;6.23;;;;;;;;;;5135762;27;20754;-66
2021/03/08 12:56:18;;;;;;;8.97;7.13;;;;;;;;;;5136082;27;20542;-66
2021/03/08 12:58:45;;;;;;;7.50;5.93;;;;;;;;;;5135955;27;20943;-66
2021/03/08 13:01:12;;;;;;;11.53;6.60;;;;;;;;;;5135886;27;21132;-66
2021/03/08 13:03:39;;;;;;;7.37;6.20;;;;;;;;;;5135927;27;20630;-65
2021/03/08 13:06:06;;;;;;;6.60;6.00;;;;;;;;;;5117835;27;20611;-64
2021/03/08 13:08:34;;;;;;;5.80;5.23;;;;;;;;;;5135734;27;20633;-64
2021/03/08 13:11:04;;;;;;;6.97;5.43;;;;;;;;;;5135858;27;20604;-65
2021/03/08 13:13:30;;;;;;;6.50;5.53;;;;;;;;;;5117338;27;20623;-65
2021/03/08 13:15:57;;;;;;;6.13;5.35;;;;;;;;;;5117844;27;21163;-65
2021/03/08 13:18:26;;;;;;;6.20;5.60;;;;;;;;;;5135579;27;20617;-65
2021/03/08 13:20:55;;;;;;;7.63;5.70;;;;;;;;;;5135374;27;20590;-65
2021/03/08 13:23:26;;;;;;;8.83;5.97;;;;;;;;;;5117919;27;20174;-65
2021/03/08 13:25:52;;;;;;;5.60;5.10;;;;;;;;;;5116746;27;20623;-65
2021/03/08 13:28:19;;;;;;;12.20;6.00;;;;;;;;;;5135362;27;20635;-65
2021/03/08 13:30:46;;;;;;;7.90;5.63;;;;;;;;;;5132158;22;20766;-85
2021/03/08 13:33:12;;;;;;;5.40;4.90;;;;;;;;;;5083203;28;20627;-87
2021/03/08 13:35:39;;;;;;;6.43;5.87;;;;;;;;;;5082639;28;20581;-88
2021/03/08 13:38:17;;;;;;;6.00;5.27;;;;;;;;;;5081906;28;20587;-87
2021/03/08 13:40:45;;;;;;;5.87;4.53;;;;;;;;;;5081266;28;20629;-89
2021/03/08 13:43:13;;;;;;;5.50;5.00;;;;;;;;;;5065278;28;20642;-89
2021/03/08 13:45:41;;;;;;;7.37;5.83;;;;;;;;;;5083238;28;20620;-87
2021/03/08 13:48:07;;;;;;;6.23;5.63;;;;;;;;;;5064962;28;20682;-86
2021/03/08 13:50:34;;;;;;;9.20;4.70;;;;;;;;;;5048379;28;20609;-89
2021/03/08 13:53:02;;;;;;;5.47;5.07;;;;;;;;;;5082971;28;20610;-86
2021/03/08 13:55:28;;;;;;;6.07;4.40;;;;;;;;;;5082005;28;20609;-86
2021/03/08 13:57:57;;;;;;;5.77;5.20;;;;;;;;;;5081823;28;20927;-88
2021/03/08 14:00:23;;;;;;;6.33;5.20;;;;;;;;;;5080517;28;20577;-86
2021/03/08 14:02:51;;;;;;;5.07;4.33;;;;;;;;;;5082660;28;20602;-86
2021/03/08 14:05:18;;;;;;;4.90;4.30;;;;;;;;;;5082167;28;20598;-88
2021/03/08 14:07:46;;;;;;;4.73;4.33;;;;;;;;;;5082794;28;20703;-88
2021/03/08 14:10:13;;;;;;;4.80;4.40;;;;;;;;;;5081089;28;20732;-86
2021/03/08 14:12:40;;;;;;;4.40;4.07;;;;;;;;;;5080637;28;20705;-88
2021/03/08 14:15:09;;;;;;;4.88;4.38;;;;;;;;;;5082713;28;20715;-87
2021/03/08 14:17:41;;;;;;;7.07;4.47;;;;;;;;;;5066179;28;20243;-87
2021/03/08 14:20:10;;;;;;;6.68;4.00;;;;;;;;;;5081913;28;20184;-86
2021/03/08 14:22:39;;;;;;;5.67;4.37;;;;;;;;;;5082212;28;20242;-86
2021/03/08 14:25:07;;;;;;;8.47;4.60;;;;;;;;;;5064512;28;21139;-86
2021/03/08 14:27:34;;;;;;;4.83;4.07;;;;;;;;;;5079995;28;20658;-87
2021/03/08 14:30:07;;;;;;;5.20;3.93;;;;;;;;;;5082687;28;20653;-88
2021/03/08 14:32:37;;;;;;;4.93;4.53;;;;;;;;;;5085061;28;20553;-87
2021/03/08 14:35:05;;;;;;;5.10;4.60;;;;;;;;;;5084442;28;20640;-87
2021/03/08 14:37:36;;;;;;;5.53;4.97;;;;;;;;;;5071011;28;20691;-87
2021/03/08 14:40:04;;;;;;;4.97;4.53;;;;;;;;;;5067290;28;20618;-87
2021/03/08 14:42:34;;;;;;;4.33;3.93;;;;;;;;;;5086934;28;20644;-87
2021/03/08 14:45:01;;;;;;;4.07;3.70;;;;;;;;;;5087341;28;20605;-86
2021/03/08 14:47:31;;;;;;;3.50;3.30;;;;;;;;;;5086643;28;20745;-88
2021/03/08 14:49:59;;;;;;;3.70;3.40;;;;;;;;;;5056824;28;20630;-87
2021/03/08 14:52:27;;;;;;;4.03;3.63;;;;;;;;;;5071583;28;20644;-89
2021/03/08 14:54:59;;;;;;;5.87;3.83;;;;;;;;;;5090967;28;20606;-89